Time;durP1;ratioP1;P1;durP2;ratioP2;P2;SDS_P1;SDS_P2;PMS_P1;PMS_P2;Temp;Humidity;BMP_temperature;BMP_pressure;BME280_temperature;BME280_humidity;BME280_pressure;Samples;Min_cycle;Max_cycle;Signal;HPM_P1;HPM_P2
2021/09/27 00:00:35;;;;;;;;;7.75;7.75;;;;;18.97;60.99;101078.28;5002406;28;45333;-45
2021/09/27 00:03:01;;;;;;;;;6.75;6.75;;;;;18.94;61.15;101081.94;5002630;28;45273;-46
2021/09/27 00:05:27;;;;;;;;;8.25;7.00;;;;;18.94;61.53;101076.63;5002241;28;45523;-48
2021/09/27 00:07:53;;;;;;;;;8.00;7.75;;;;;18.95;61.21;101077.47;5002470;28;46015;-45
2021/09/27 00:10:23;;;;;;;;;6.25;5.75;;;;;18.88;61.29;101068.88;5002112;28;45275;-46
2021/09/27 00:12:49;;;;;;;;;8.00;8.00;;;;;18.93;61.43;101074.91;5002050;28;45404;-44
2021/09/27 00:15:22;;;;;;;;;8.25;7.00;;;;;18.95;61.26;101085.47;5001948;28;45553;-46
2021/09/27 00:17:47;;;;;;;;;7.00;5.25;;;;;18.94;60.98;101083.72;5002408;28;46277;-44
2021/09/27 00:20:13;;;;;;;;;9.75;9.00;;;;;18.94;61.52;101075.75;5002002;28;45467;-44
2021/09/27 00:22:39;;;;;;;;;8.75;6.00;;;;;18.95;61.35;101075.66;5000954;28;45326;-48
2021/09/27 00:25:06;;;;;;;;;7.50;7.50;;;;;18.96;61.43;101079.22;5001997;28;45575;-45
2021/09/27 00:27:32;;;;;;;;;6.25;6.25;;;;;18.95;61.51;101077.47;5002090;28;45356;-46
2021/09/27 00:29:59;;;;;;;;;8.75;8.75;;;;;18.94;61.54;101067.75;5001873;28;45229;-46
2021/09/27 00:32:25;;;;;;;;;8.50;7.25;;;;;18.92;61.31;101072.31;5001029;28;45684;-44
2021/09/27 00:34:50;;;;;;;;;8.00;7.25;;;;;18.94;61.85;101071.31;5001443;28;45473;-47
2021/09/27 00:37:15;;;;;;;;;7.50;7.25;;;;;18.94;61.64;101070.41;5001778;28;46108;-46
2021/09/27 00:39:41;;;;;;;;;7.00;7.00;;;;;18.94;61.37;101067.75;5001896;28;45317;-44
2021/09/27 00:42:06;;;;;;;;;7.25;6.50;;;;;18.94;61.64;101068.66;5001900;28;45325;-46
2021/09/27 00:44:32;;;;;;;;;8.75;6.25;;;;;18.94;61.17;101065.97;5001486;28;45301;-43
2021/09/27 00:46:57;;;;;;;;;10.00;7.25;;;;;18.94;61.50;101071.31;5001753;28;45373;-44
2021/09/27 00:49:22;;;;;;;;;8.50;7.75;;;;;18.96;61.57;101065.91;5001796;28;45473;-49
2021/09/27 00:51:48;;;;;;;;;8.00;7.25;;;;;18.94;61.40;101063.31;5001895;28;45488;-47
2021/09/27 00:54:21;;;;;;;;;7.75;7.25;;;;;18.97;61.81;101064.97;5001448;28;45361;-43
2021/09/27 00:56:52;;;;;;;;;7.75;7.75;;;;;18.97;61.49;101070.31;5001629;28;46982;-45
2021/09/27 00:59:18;;;;;;;;;9.00;8.00;;;;;18.98;61.67;101064.03;5001188;28;45259;-47
2021/09/27 01:01:44;;;;;;;;;7.25;7.25;;;;;18.96;61.51;101060.56;5001745;28;45229;-45
2021/09/27 01:04:10;;;;;;;;;7.00;5.50;;;;;18.95;61.67;101058.84;5001375;28;45318;-43
2021/09/27 01:06:51;;;;;;;;;8.50;7.75;;;;;18.96;61.84;101065.91;5001515;28;45451;-44
2021/09/27 01:09:20;;;;;;;;;11.50;9.00;;;;;18.95;61.69;101064.16;5001341;28;45448;-44
2021/09/27 01:11:54;;;;;;;;;11.00;8.00;;;;;18.93;61.84;101048.25;5001436;28;45384;-45
2021/09/27 01:14:45;;;;;;;;;8.75;8.75;;;;;18.92;61.53;101045.69;5000864;28;45432;-46
2021/09/27 01:17:41;;;;;;;;;7.50;7.50;;;;;18.92;61.78;101043.03;5000019;28;46072;-45
2021/09/27 01:20:22;;;;;;;;;8.50;8.50;;;;;18.90;61.72;101037.72;5001191;28;45243;-44
2021/09/27 01:23:06;;;;;;;;;7.00;7.00;;;;;18.91;61.31;101043.94;5001342;28;45277;-43
2021/09/27 01:25:50;;;;;;;;;10.25;7.50;;;;;18.90;61.66;101031.53;5001044;28;45357;-45
2021/09/27 01:28:37;;;;;;;;;11.25;10.50;;;;;18.87;61.93;101031.66;5000585;28;46106;-44
2021/09/27 01:31:38;;;;;;;;;7.00;7.00;;;;;18.86;62.25;101032.59;5001091;28;45333;-45
2021/09/27 01:34:35;;;;;;;;;10.00;8.75;;;;;18.86;61.98;101032.59;4999392;28;45294;-45
2021/09/27 01:37:10;;;;;;;;;8.00;8.00;;;;;18.85;62.21;101026.41;4998954;28;45248;-45
2021/09/27 01:39:35;;;;;;;;;9.00;7.25;;;;;18.84;61.93;101030.88;4999553;28;45444;-44
2021/09/27 01:42:24;;;;;;;;;7.00;6.75;;;;;18.84;62.11;101035.31;4999474;28;45367;-43
2021/09/27 01:45:30;;;;;;;;;10.00;9.00;;;;;18.84;61.85;101036.19;4999373;28;45302;-43
2021/09/27 01:48:11;;;;;;;;;9.25;9.25;;;;;18.82;62.00;101038.03;4997093;28;45583;-47
2021/09/27 01:50:47;;;;;;;;;8.00;8.00;;;;;18.85;61.87;101026.41;4999078;28;45449;-47
2021/09/27 01:53:21;;;;;;;;;9.50;8.75;;;;;18.87;62.16;101031.66;4999468;28;45337;-44
2021/09/27 01:55:58;;;;;;;;;11.25;11.25;;;;;18.87;62.23;101021.00;4999236;28;45274;-47
2021/09/27 01:59:02;;;;;;;;;10.00;10.00;;;;;18.88;62.06;101018.28;4998952;28;45255;-47
2021/09/27 02:01:41;;;;;;;;;10.00;9.25;;;;;18.86;61.97;101012.16;4999143;28;46129;-44
2021/09/27 02:04:19;;;;;;;;;10.25;8.50;;;;;18.89;62.17;101008.50;4997718;28;45464;-43
2021/09/27 02:06:50;;;;;;;;;7.75;7.75;;;;;18.91;62.06;101004.00;4999252;28;45409;-44
2021/09/27 02:09:31;;;;;;;;;9.00;8.50;;;;;18.91;62.17;101004.84;4999024;28;45175;-47
2021/09/27 02:12:17;;;;;;;;;11.00;10.00;;;;;18.96;62.10;101007.31;4998767;28;45975;-44
2021/09/27 02:14:54;;;;;;;;;9.00;9.00;;;;;18.96;62.20;101013.50;4997251;28;45322;-45
2021/09/27 02:17:27;;;;;;;;;8.50;8.50;;;;;18.95;62.16;100995.78;5018705;28;45513;-47
2021/09/27 02:19:58;;;;;;;;;13.25;10.50;;;;;18.94;62.46;100988.75;5018656;28;45474;-44
2021/09/27 02:22:36;;;;;;;;;8.75;8.00;;;;;18.95;62.29;100992.28;5018450;28;46606;-45
2021/09/27 02:25:31;;;;;;;;;8.50;8.50;;;;;18.96;62.39;100986.88;5018444;28;45301;-44
2021/09/27 02:28:00;;;;;;;;;8.50;8.50;;;;;18.95;62.13;100985.13;5018331;28;45455;-44
2021/09/27 02:30:34;;;;;;;;;12.00;9.00;;;;;18.94;62.00;100988.75;5018319;28;45514;-45
2021/09/27 02:33:23;;;;;;;;;7.25;7.25;;;;;18.94;62.55;100983.44;5018463;28;46061;-47
2021/09/27 02:36:16;;;;;;;;;12.50;10.00;;;;;18.91;62.21;100994.19;4967411;28;1156498;-43
2021/09/27 02:39:01;;;;;;;;;13.00;12.00;;;;;18.89;62.57;100997.84;5005553;28;45242;-44
2021/09/27 02:42:00;;;;;;;;;11.00;10.00;;;;;18.87;62.50;100995.25;5019771;28;45448;-44
2021/09/27 02:44:26;;;;;;;;;8.75;8.75;;;;;18.88;62.20;100993.44;5018287;28;46148;-46
2021/09/27 02:46:54;;;;;;;;;11.50;10.25;;;;;18.88;62.23;100993.44;5019623;28;45320;-42
2021/09/27 02:49:25;;;;;;;;;14.75;11.25;;;;;18.87;62.09;100991.72;5019762;28;45316;-46
2021/09/27 02:51:51;;;;;;;;;12.75;10.00;;;;;18.86;62.52;100990.00;5019683;28;45405;-44
2021/09/27 02:54:28;;;;;;;;;13.00;11.25;;;;;18.84;62.49;100992.72;5019289;28;46213;-43
2021/09/27 02:57:35;;;;;;;;;9.00;8.25;;;;;18.84;62.46;100993.59;5019759;28;45332;-44
2021/09/27 03:00:09;;;;;;;;;12.50;10.50;;;;;18.83;62.92;100991.88;5019915;28;45281;-44
2021/09/27 03:02:49;;;;;;;;;12.50;10.50;;;;;18.83;62.75;101005.16;5019544;28;45459;-43
2021/09/27 03:05:24;;;;;;;;;12.75;12.50;;;;;18.83;62.81;101009.66;5018264;28;47278;-45
2021/09/27 03:07:55;;;;;;;;;12.50;11.25;;;;;18.83;62.78;101001.66;5019678;28;45325;-42
2021/09/27 03:10:43;;;;;;;;;12.50;12.50;;;;;18.81;62.97;100996.38;5019553;28;45515;-45
2021/09/27 03:13:27;;;;;;;;;12.00;11.00;;;;;18.79;62.75;100986.72;5019226;28;45263;-45
2021/09/27 03:16:07;;;;;;;;;12.25;10.25;;;;;18.79;62.45;100982.28;5019183;28;45252;-44
2021/09/27 03:18:48;;;;;;;;;11.50;11.50;;;;;18.80;62.67;100991.13;5019331;28;45278;-43
2021/09/27 03:21:33;;;;;;;;;14.50;10.00;;;;;18.80;62.81;100994.69;5019540;28;45225;-44
2021/09/27 03:24:22;;;;;;;;;12.25;11.50;;;;;18.80;62.47;100994.69;5018942;28;45214;-43
2021/09/27 03:27:02;;;;;;;;;13.75;12.25;;;;;18.80;62.76;100997.34;5017334;28;47705;-44
2021/09/27 03:29:55;;;;;;;;;11.25;8.25;;;;;18.80;62.77;100986.69;5019119;28;45263;-46
2021/09/27 03:32:50;;;;;;;;;7.00;7.00;;;;;18.76;62.91;100989.53;5019692;28;45393;-46
2021/09/27 03:35:32;;;;;;;;;14.00;11.50;;;;;18.77;62.67;100983.28;5018893;28;45249;-44
2021/09/27 03:38:33;;;;;;;;;13.25;12.25;;;;;18.76;62.83;100992.22;5004595;28;45536;-43
2021/09/27 03:41:10;;;;;;;;;9.00;7.75;;;;;18.75;62.78;100991.31;4998716;28;45147;-46
2021/09/27 03:43:58;;;;;;;;;11.50;10.75;;;;;18.74;62.67;100994.06;4994740;28;45336;-45
2021/09/27 03:46:39;;;;;;;;;15.00;14.50;;;;;18.70;62.85;101001.31;5018880;28;45417;-45
2021/09/27 03:49:22;;;;;;;;;13.25;13.25;;;;;18.70;62.89;100997.81;5018948;28;46064;-45
2021/09/27 03:51:59;;;;;;;;;12.00;10.75;;;;;18.71;62.49;100995.06;5017649;28;45275;-43
2021/09/27 03:54:37;;;;;;;;;10.25;10.25;;;;;18.68;62.92;101003.19;5018843;28;45306;-45
2021/09/27 03:57:13;;;;;;;;;9.75;9.00;;;;;18.66;62.94;100999.72;5021133;28;45254;-47
2021/09/27 03:59:42;;;;;;;;;13.00;13.00;;;;;18.67;62.75;100998.81;5022135;28;45380;-46
2021/09/27 04:02:31;;;;;;;;;11.00;10.25;;;;;18.68;63.08;100997.88;5022318;28;45222;-43
2021/09/27 04:05:03;;;;;;;;;14.00;12.00;;;;;18.66;62.86;100991.75;5022652;28;45672;-43
2021/09/27 04:07:40;;;;;;;;;11.00;9.00;;;;;18.67;62.62;101012.13;5022073;28;45463;-43
2021/09/27 04:10:32;;;;;;;;;11.50;10.25;;;;;18.66;62.79;101023.69;5022113;28;45287;-45
2021/09/27 04:13:16;;;;;;;;;14.25;11.50;;;;;18.65;63.18;101011.31;5021462;28;45240;-43
2021/09/27 04:16:03;;;;;;;;;12.25;11.25;;;;;18.65;62.89;101011.31;5022096;28;45244;-43
2021/09/27 04:18:34;;;;;;;;;10.25;9.50;;;;;18.65;63.01;101013.97;5021993;28;45157;-46
2021/09/27 04:21:26;;;;;;;;;11.25;9.50;;;;;18.64;63.07;101006.91;5021894;28;46213;-44
2021/09/27 04:24:18;;;;;;;;;12.25;12.25;;;;;18.63;62.96;101005.19;5022001;28;45342;-44
2021/09/27 04:27:08;;;;;;;;;12.00;12.00;;;;;18.60;62.94;101015.97;5021978;28;45348;-45
2021/09/27 04:29:54;;;;;;;;;13.00;9.75;;;;;18.62;62.94;101019.44;5021679;28;45249;-44
2021/09/27 04:32:42;;;;;;;;;6.50;6.50;;;;;18.61;62.75;101007.06;5021808;28;47477;-45
2021/09/27 04:35:19;;;;;;;;;14.00;11.75;;;;;18.61;62.63;101004.38;5017894;28;45398;-46
2021/09/27 04:37:46;;;;;;;;;11.50;8.25;;;;;18.60;62.72;101000.00;5007891;28;45369;-44
2021/09/27 04:40:13;;;;;;;;;9.50;8.75;;;;;18.59;62.71;100993.81;5002043;28;45257;-44
2021/09/27 04:42:59;;;;;;;;;11.00;11.00;;;;;18.58;63.33;100992.09;5016607;28;47377;-45
2021/09/27 04:45:46;;;;;;;;;7.50;6.50;;;;;18.58;62.64;100997.41;5001500;28;45289;-43
2021/09/27 04:48:30;;;;;;;;;8.75;8.75;;;;;18.55;62.49;100991.34;5000569;28;45321;-44
2021/09/27 04:51:04;;;;;;;;;10.25;8.00;;;;;18.58;62.65;101000.06;5001665;28;46038;-44
2021/09/27 04:53:43;;;;;;;;;7.75;7.75;;;;;18.58;62.49;100983.22;5001745;28;46014;-45
2021/09/27 04:56:43;;;;;;;;;9.00;8.50;;;;;18.59;62.55;100983.19;5000319;28;45427;-44
2021/09/27 04:59:17;;;;;;;;;9.50;9.00;;;;;18.59;62.38;100988.50;4999354;28;45416;-46
2021/09/27 05:01:57;;;;;;;;;10.00;7.00;;;;;18.59;62.44;100969.88;5001620;28;45313;-48
2021/09/27 05:04:41;;;;;;;;;8.00;7.50;;;;;18.60;62.37;100984.03;5001350;28;45496;-47
2021/09/27 05:07:31;;;;;;;;;8.75;8.75;;;;;18.60;62.42;100984.03;5001026;28;45185;-47
2021/09/27 05:10:26;;;;;;;;;8.50;7.50;;;;;18.59;62.21;100972.53;5001558;28;45316;-47
2021/09/27 05:13:22;;;;;;;;;6.50;6.50;;;;;18.58;62.49;100986.75;4988991;28;45624;-45
2021/09/27 05:15:53;;;;;;;;;6.00;6.00;;;;;18.56;63.03;100977.13;5001070;28;46243;-45
2021/09/27 05:18:25;;;;;;;;;9.25;6.25;;;;;18.56;62.34;100966.47;5001487;28;45225;-44
2021/09/27 05:21:02;;;;;;;;;6.00;6.00;;;;;18.58;62.33;100959.28;5000189;28;45299;-43
2021/09/27 05:23:40;;;;;;;;;9.50;8.50;;;;;18.57;61.79;100963.75;5001113;28;45160;-44
2021/09/27 05:26:33;;;;;;;;;5.75;5.75;;;;;18.57;62.34;100953.09;5001115;28;47175;-44
2021/09/27 05:29:26;;;;;;;;;7.00;6.50;;;;;18.58;62.28;100948.63;4994691;28;45249;-44
2021/09/27 05:32:25;;;;;;;;;7.25;6.75;;;;;18.58;62.37;100937.97;5019709;28;45321;-45
2021/09/27 05:34:56;;;;;;;;;8.50;6.75;;;;;18.58;62.16;100945.97;5020353;28;45475;-46
2021/09/27 05:37:37;;;;;;;;;9.25;7.75;;;;;18.59;62.04;100937.94;5011177;28;46123;-45
2021/09/27 05:40:14;;;;;;;;;7.00;7.00;;;;;18.59;62.11;100945.91;5000996;28;45579;-48
2021/09/27 05:43:05;;;;;;;;;6.50;6.50;;;;;18.58;62.26;100949.50;5000682;28;45510;-44
2021/09/27 05:45:46;;;;;;;;;7.50;5.00;;;;;18.56;62.14;100956.69;4999701;28;45480;-46
2021/09/27 05:48:37;;;;;;;;;7.00;7.00;;;;;18.56;62.06;100963.81;5000690;28;46312;-44
2021/09/27 05:51:05;;;;;;;;;7.00;5.50;;;;;18.54;62.43;100966.56;5000628;28;45269;-43
2021/09/27 05:53:52;;;;;;;;;8.00;7.00;;;;;18.54;62.20;100965.66;5001073;28;45254;-47
2021/09/27 05:56:36;;;;;;;;;7.00;6.50;;;;;18.48;62.16;100949.03;5000530;28;45226;-46
2021/09/27 05:59:34;;;;;;;;;8.00;5.75;;;;;18.50;62.28;100917.91;4998899;28;48607;-47
2021/09/27 06:02:18;;;;;;;;;8.25;6.00;;;;;18.50;62.26;100933.00;5000734;28;45163;-46
2021/09/27 06:04:55;;;;;;;;;4.00;4.00;;;;;18.48;62.49;100935.75;4996028;28;45248;-45
2021/09/27 06:07:30;;;;;;;;;8.00;8.00;;;;;18.49;62.42;100948.13;5020325;28;45376;-45
2021/09/27 06:10:36;;;;;;;;;6.00;4.75;;;;;18.47;62.65;100925.16;5019142;28;45447;-45
2021/09/27 06:13:25;;;;;;;;;10.75;6.50;;;;;18.46;62.80;100944.72;5018689;28;45329;-44
2021/09/27 06:15:58;;;;;;;;;6.50;5.50;;;;;18.45;62.37;100949.19;5020155;28;45455;-47
2021/09/27 06:18:48;;;;;;;;;8.00;7.00;;;;;18.45;62.14;100961.63;5020095;28;45389;-44
2021/09/27 06:21:51;;;;;;;;;6.25;6.25;;;;;18.44;62.39;100971.41;5019987;28;47012;-46
2021/09/27 06:24:40;;;;;;;;;7.00;6.00;;;;;18.36;62.46;100933.63;5020004;28;45431;-44
2021/09/27 06:27:14;;;;;;;;;5.75;4.25;;;;;18.46;62.41;100966.00;5020029;28;45165;-44
2021/09/27 06:30:09;;;;;;;;;8.25;5.00;;;;;18.45;62.25;100970.47;5020159;28;45162;-44
2021/09/27 06:32:53;;;;;;;;;7.75;7.00;;;;;18.44;62.80;100975.84;5020025;28;46345;-49
2021/09/27 06:35:23;;;;;;;;;7.50;6.50;;;;;18.45;62.62;100972.25;5019771;28;45242;-49
2021/09/27 06:37:50;;;;;;;;;5.50;5.50;;;;;18.47;62.85;100978.38;5006881;28;45321;-47
2021/09/27 06:40:17;;;;;;;;;10.25;6.00;;;;;18.43;63.07;100982.13;4987278;28;45276;-45
2021/09/27 06:42:42;;;;;;;;;11.50;7.75;;;;;18.43;62.80;100977.66;4999618;28;46479;-45
2021/09/27 06:45:09;;;;;;;;;8.25;8.25;;;;;18.44;62.70;100962.53;5000105;28;45401;-44
2021/09/27 06:47:35;;;;;;;;;8.00;6.00;;;;;18.46;62.94;100964.19;5000118;28;45240;-44
2021/09/27 06:50:01;;;;;;;;;8.00;8.00;;;;;18.46;62.94;100953.56;5000087;28;45350;-45
2021/09/27 06:52:27;;;;;;;;;8.25;6.75;;;;;18.46;62.83;100966.84;4999647;28;45312;-45
2021/09/27 06:54:53;;;;;;;;;4.00;4.00;;;;;18.49;62.92;100979.19;4999854;28;45341;-45
2021/09/27 06:57:18;;;;;;;;;7.75;7.00;;;;;18.51;63.11;100985.28;4999489;28;45294;-46
2021/09/27 06:59:43;;;;;;;;;7.25;6.25;;;;;18.50;62.75;100984.44;4998665;28;45415;-44
2021/09/27 07:02:09;;;;;;;;;6.25;5.00;;;;;18.54;62.83;100971.00;4999891;28;46022;-45
2021/09/27 07:04:34;;;;;;;;;5.00;5.00;;;;;18.54;62.46;100973.66;4999906;28;45436;-46
2021/09/27 07:06:59;;;;;;;;;7.00;4.25;;;;;18.55;62.84;100976.22;5000141;28;45459;-46
2021/09/27 07:09:25;;;;;;;;;6.75;4.50;;;;;18.56;62.28;100967.31;4999914;28;45593;-47
2021/09/27 07:11:50;;;;;;;;;5.75;4.25;;;;;18.55;62.59;100952.28;5014889;28;48040;-44
2021/09/27 07:14:16;;;;;;;;;5.50;4.00;;;;;18.55;62.68;100959.41;4998147;28;45250;-44
2021/09/27 07:16:41;;;;;;;;;7.25;6.50;;;;;18.56;62.51;100964.66;4999771;28;45318;-45
2021/09/27 07:19:09;;;;;;;;;6.25;5.25;;;;;18.57;62.79;100960.22;4999896;28;45218;-44
2021/09/27 07:21:37;;;;;;;;;7.00;5.75;;;;;18.57;62.78;100965.53;4999419;28;46067;-45
2021/09/27 07:24:03;;;;;;;;;7.75;7.75;;;;;18.57;62.98;100977.03;4999638;28;45397;-49
2021/09/27 07:26:28;;;;;;;;;5.00;5.00;;;;;18.57;62.91;100966.41;5014804;28;45348;-45
2021/09/27 07:28:56;;;;;;;;;6.00;4.75;;;;;18.55;62.65;100981.56;4999200;28;45305;-44
2021/09/27 07:31:24;;;;;;;;;8.25;5.00;;;;;18.55;62.53;100973.56;5000450;28;46330;-44
2021/09/27 07:33:50;;;;;;;;;8.50;6.50;;;;;18.54;62.54;100965.66;5018147;28;45182;-44
2021/09/27 07:36:16;;;;;;;;;7.00;6.50;;;;;18.52;62.86;100974.56;5002487;28;45413;-48
2021/09/27 07:38:42;;;;;;;;;9.75;9.75;;;;;18.53;62.43;100972.81;5002746;28;45445;-46
2021/09/27 07:41:08;;;;;;;;;8.00;6.00;;;;;18.55;62.59;100973.56;5002640;28;45388;-46
2021/09/27 07:43:35;;;;;;;;;5.00;5.00;;;;;18.54;62.93;100960.34;5002716;28;45327;-45
2021/09/27 07:46:01;;;;;;;;;5.25;5.25;;;;;18.53;62.28;100983.44;5017831;28;45174;-43
2021/09/27 07:48:27;;;;;;;;;5.25;5.00;;;;;18.50;62.67;100978.25;5002779;28;45188;-46
2021/09/27 07:50:54;;;;;;;;;8.00;6.00;;;;;18.51;62.81;100972.88;5002520;28;45372;-44
2021/09/27 07:53:20;;;;;;;;;7.75;7.25;;;;;18.47;62.80;100979.25;5002797;28;45305;-46
2021/09/27 07:55:46;;;;;;;;;4.75;4.75;;;;;18.51;62.70;100979.97;5002542;28;45392;-47
2021/09/27 07:58:15;;;;;;;;;5.50;5.50;;;;;18.50;62.76;100973.81;5002310;28;45462;-47
2021/09/27 08:00:41;;;;;;;;;7.75;7.00;;;;;18.51;62.61;100970.22;5002618;28;47005;-43
2021/09/27 08:03:06;;;;;;;;;7.00;6.25;;;;;18.52;62.65;100979.91;5002515;28;45224;-47
2021/09/27 08:05:33;;;;;;;;;6.00;4.75;;;;;18.46;62.62;100948.22;5002593;28;45179;-44
2021/09/27 08:07:59;;;;;;;;;7.00;4.25;;;;;18.52;62.52;100971.91;5002513;28;45393;-44
2021/09/27 08:10:26;;;;;;;;;9.00;9.00;;;;;18.53;62.47;100986.09;5002219;28;46189;-43
2021/09/27 08:12:52;;;;;;;;;6.50;6.00;;;;;18.54;62.90;100981.63;5002051;28;45333;-43
2021/09/27 08:15:24;;;;;;;;;9.25;6.00;;;;;18.55;63.16;100980.72;5002207;28;45343;-45
2021/09/27 08:17:51;;;;;;;;;7.00;7.00;;;;;18.55;62.76;100983.38;5002152;28;45234;-44
2021/09/27 08:20:21;;;;;;;;;6.25;6.25;;;;;18.52;63.02;100974.56;5000697;28;46152;-44
2021/09/27 08:22:47;;;;;;;;;6.50;6.50;;;;;18.52;63.07;100977.22;5001980;28;45289;-43
2021/09/27 08:25:14;;;;;;;;;6.50;6.50;;;;;18.54;63.08;100978.97;5002116;28;45349;-45
2021/09/27 08:27:40;;;;;;;;;6.25;6.25;;;;;18.55;63.13;100984.22;5001774;28;45173;-45
2021/09/27 08:30:08;;;;;;;;;6.00;6.00;;;;;18.56;62.69;100983.28;5001819;28;46373;-45
2021/09/27 08:32:35;;;;;;;;;6.75;6.75;;;;;18.57;62.58;100978.84;5001995;28;45471;-44
2021/09/27 08:35:01;;;;;;;;;5.50;5.50;;;;;18.56;62.88;100977.13;5001717;28;45282;-44
2021/09/27 08:37:26;;;;;;;;;6.75;5.00;;;;;18.54;62.93;100971.00;5001970;28;45467;-47
2021/09/27 08:39:51;;;;;;;;;8.50;7.25;;;;;18.56;62.95;100977.13;5018595;28;45448;-45
2021/09/27 08:42:40;;;;;;;;;5.50;5.50;;;;;18.55;63.08;100960.28;5021373;28;45390;-43
2021/09/27 08:45:20;;;;;;;;;9.25;7.00;;;;;18.55;62.87;100948.78;5021725;28;45455;-45
2021/09/27 08:47:45;;;;;;;;;11.50;7.00;;;;;18.58;63.08;100954.81;5020293;28;45526;-44
2021/09/27 08:50:33;;;;;;;;;8.50;7.00;;;;;18.60;62.97;100952.97;5021433;28;46305;-46
2021/09/27 08:53:03;;;;;;;;;7.75;6.00;;;;;18.59;63.20;100943.25;5020249;28;45246;-45
2021/09/27 08:55:30;;;;;;;;;9.25;7.75;;;;;18.62;62.68;100948.44;5020126;28;45439;-47
2021/09/27 08:58:26;;;;;;;;;10.00;10.00;;;;;18.63;62.95;100958.16;5020951;28;45162;-44
2021/09/27 09:01:16;;;;;;;;;8.00;7.75;;;;;18.66;63.24;100962.47;5021253;28;46834;-45
2021/09/27 09:03:51;;;;;;;;;5.75;5.50;;;;;18.68;63.38;100963.28;5020958;28;45311;-45
2021/09/27 09:06:25;;;;;;;;;6.75;6.75;;;;;18.70;62.96;100953.41;5020268;28;45365;-46
2021/09/27 09:09:01;;;;;;;;;6.00;6.00;;;;;18.68;62.86;100940.16;5021170;28;45511;-44
2021/09/27 09:11:59;;;;;;;;;9.50;8.00;;;;;18.73;63.22;100945.28;5021047;28;45381;-47
2021/09/27 09:14:30;;;;;;;;;7.75;6.50;;;;;18.76;63.16;100941.63;5019589;28;45504;-43
2021/09/27 09:16:56;;;;;;;;;9.25;7.25;;;;;18.78;63.41;100937.09;5020972;28;45281;-47
2021/09/27 09:19:27;;;;;;;;;8.00;6.50;;;;;18.81;63.21;100947.59;5021153;28;45448;-45
2021/09/27 09:22:00;;;;;;;;;7.75;6.50;;;;;18.84;63.23;100942.13;5020836;28;45181;-43
2021/09/27 09:24:34;;;;;;;;;7.50;7.00;;;;;18.87;63.38;100936.69;5020888;28;45304;-44
2021/09/27 09:27:03;;;;;;;;;5.75;5.00;;;;;18.90;63.04;100941.88;5021015;28;45359;-46
2021/09/27 09:29:33;;;;;;;;;7.50;6.00;;;;;18.94;63.26;100943.50;5020700;28;45364;-48
2021/09/27 09:32:21;;;;;;;;;6.75;6.75;;;;;18.97;63.20;100948.66;5019161;28;45416;-47
2021/09/27 09:34:50;;;;;;;;;9.25;9.25;;;;;18.99;63.15;100960.13;5020256;28;45439;-43
2021/09/27 09:37:38;;;;;;;;;8.50;7.75;;;;;19.02;63.07;100943.13;5012214;28;45272;-47
2021/09/27 09:40:15;;;;;;;;;7.00;6.00;;;;;19.02;63.43;100943.13;5000758;28;45571;-43
2021/09/27 09:42:52;;;;;;;;;7.50;6.50;;;;;19.07;63.09;100948.22;5000635;28;45329;-43
2021/09/27 09:45:24;;;;;;;;;8.75;7.50;;;;;19.11;63.32;100937.38;5000772;28;45479;-44
2021/09/27 09:47:49;;;;;;;;;7.25;7.25;;;;;19.12;62.87;100943.56;5000961;28;45326;-45
2021/09/27 09:50:20;;;;;;;;;6.50;5.00;;;;;19.16;62.91;100939.81;5000764;28;45381;-46
2021/09/27 09:52:52;;;;;;;;;9.00;6.50;;;;;19.21;62.94;100947.59;5000449;28;45433;-46
2021/09/27 09:55:34;;;;;;;;;9.00;7.50;;;;;19.23;63.25;100948.38;4999748;28;45443;-44
2021/09/27 09:58:09;;;;;;;;;6.25;6.25;;;;;19.27;63.04;100948.16;5000247;28;45349;-45
2021/09/27 10:00:41;;;;;;;;;9.00;8.00;;;;;19.33;63.47;100957.66;5000412;28;45404;-44
2021/09/27 10:03:11;;;;;;;;;8.25;7.00;;;;;19.37;63.01;100950.38;5000367;28;46498;-45
2021/09/27 10:05:44;;;;;;;;;7.50;6.50;;;;;19.40;63.31;100967.09;5000362;28;45508;-45
2021/09/27 10:08:19;;;;;;;;;7.75;6.50;;;;;19.45;63.08;100961.56;5015935;28;45262;-45
2021/09/27 10:10:55;;;;;;;;;6.75;6.75;;;;;19.45;63.67;100946.41;5000266;28;45509;-44
2021/09/27 10:13:43;;;;;;;;;9.25;6.50;;;;;19.54;63.27;100960.25;4999952;28;45316;-48
2021/09/27 10:16:34;;;;;;;;;5.25;5.25;;;;;19.60;63.26;100962.63;4996372;28;45225;-47
2021/09/27 10:19:31;;;;;;;;;6.00;6.00;;;;;19.64;63.54;100957.03;5012726;28;45548;-46
2021/09/27 10:22:05;;;;;;;;;8.00;8.00;;;;;19.64;63.52;100965.03;5017883;28;45496;-44
2021/09/27 10:24:41;;;;;;;;;6.50;6.50;;;;;19.68;63.06;100971.09;5019887;28;45254;-50
2021/09/27 10:27:26;;;;;;;;;7.50;6.75;;;;;19.74;63.22;100969.94;5019449;28;45288;-46
2021/09/27 10:29:53;;;;;;;;;8.25;8.00;;;;;19.78;63.01;100968.84;5020075;28;45315;-45
2021/09/27 10:32:58;;;;;;;;;6.75;6.75;;;;;19.80;63.59;100965.16;5020021;28;45242;-45
2021/09/27 10:35:33;;;;;;;;;6.00;6.00;;;;;19.81;63.87;100966.88;4997609;28;45509;-44
2021/09/27 10:38:07;;;;;;;;;7.00;7.00;;;;;19.83;63.25;100977.50;5002396;28;45329;-46
2021/09/27 10:40:35;;;;;;;;;10.75;8.00;;;;;19.80;63.56;100962.50;5000352;28;45290;-44
2021/09/27 10:43:02;;;;;;;;;9.50;7.75;;;;;19.82;63.70;100967.75;4999436;28;45488;-48
2021/09/27 10:45:29;;;;;;;;;6.50;6.50;;;;;19.79;63.23;100971.44;5000053;28;45352;-46
2021/09/27 10:47:58;;;;;;;;;7.00;7.00;;;;;19.74;63.72;100967.28;4999752;28;45306;-48
2021/09/27 10:50:34;;;;;;;;;5.50;5.50;;;;;19.74;63.26;100965.47;5000068;28;45194;-48
2021/09/27 10:53:22;;;;;;;;;8.75;5.50;;;;;19.72;63.50;100979.81;4999646;28;45382;-50
2021/09/27 10:56:18;;;;;;;;;5.50;5.00;;;;;19.68;64.00;100979.09;4999620;28;46233;-49
2021/09/27 10:59:09;;;;;;;;;5.75;5.75;;;;;19.63;63.94;100989.09;4999468;28;45451;-45
2021/09/27 11:01:37;;;;;;;;;7.00;6.00;;;;;19.60;63.73;100982.13;4996900;28;45291;-49
2021/09/27 11:04:06;;;;;;;;;6.75;5.75;;;;;19.57;63.43;100981.41;5019306;28;45460;-49
2021/09/27 11:06:41;;;;;;;;;9.00;7.50;;;;;19.59;63.49;100984.88;5020818;28;46172;-46
2021/09/27 11:09:22;;;;;;;;;8.50;8.50;;;;;19.56;63.33;100985.00;5022964;28;45289;-49
2021/09/27 11:12:06;;;;;;;;;7.00;6.25;;;;;19.52;63.57;100983.44;5023003;28;45330;-47
2021/09/27 11:14:35;;;;;;;;;10.00;8.50;;;;;19.52;63.64;100989.66;5022637;28;45321;-47
2021/09/27 11:17:06;;;;;;;;;6.75;6.75;;;;;19.53;63.85;100987.84;5022822;28;45328;-49
2021/09/27 11:19:34;;;;;;;;;7.00;7.00;;;;;19.52;63.34;100983.44;5022935;28;45477;-48
2021/09/27 11:22:17;;;;;;;;;6.75;6.00;;;;;19.51;63.63;100990.56;5021546;28;45352;-45
2021/09/27 11:24:43;;;;;;;;;6.00;6.00;;;;;19.53;63.36;100987.84;5022920;28;45353;-46
2021/09/27 11:27:17;;;;;;;;;7.00;7.00;;;;;19.50;63.93;100991.50;5020923;28;47864;-48
2021/09/27 11:29:51;;;;;;;;;7.00;5.00;;;;;19.50;64.04;100991.50;5021561;28;45462;-45
2021/09/27 11:32:22;;;;;;;;;8.00;7.75;;;;;19.50;64.19;100991.50;5022757;28;45400;-47
2021/09/27 11:35:16;;;;;;;;;6.50;6.00;;;;;19.48;64.13;100986.25;5022163;28;45174;-48
2021/09/27 11:37:41;;;;;;;;;7.75;7.00;;;;;19.49;64.22;100990.63;5010181;28;45369;-48
2021/09/27 11:40:12;;;;;;;;;9.75;7.75;;;;;19.47;64.84;100992.53;5002734;28;45192;-44
2021/09/27 11:42:56;;;;;;;;;11.00;7.75;;;;;19.46;64.30;101012.09;5002455;28;45324;-44
2021/09/27 11:45:35;;;;;;;;;10.00;7.00;;;;;19.44;65.82;101077.91;4999954;28;45388;-44
2021/09/27 11:48:17;;;;;;;;;2.75;2.00;;;;;19.39;65.19;101103.06;5022316;28;46067;-45
2021/09/27 11:51:03;;;;;;;;;2.00;0.00;;;;;19.28;63.25;101114.19;5022397;28;45476;-47
2021/09/27 11:53:31;;;;;;;;;0.00;0.00;;;;;19.09;62.64;101096.38;5022538;28;45434;-46
2021/09/27 11:56:29;;;;;;;;;0.00;0.00;;;;;18.92;62.29;101096.28;5022030;28;45261;-47
2021/09/27 11:59:16;;;;;;;;;0.75;0.75;;;;;18.78;62.59;101113.66;5021855;28;46745;-46
2021/09/27 12:01:57;;;;;;;;;2.00;1.00;;;;;18.61;61.96;101117.03;5022163;28;45423;-46
2021/09/27 12:05:05;;;;;;;;;0.00;0.00;;;;;18.46;61.57;101121.19;5022070;28;45596;-45